Time;durP1;ratioP1;P1;durP2;ratioP2;P2;SDS_P1;SDS_P2;PMS_P1;PMS_P2;Temp;Humidity;BMP_temperature;BMP_pressure;BME280_temperature;BME280_humidity;BME280_pressure;Samples;Min_cycle;Max_cycle;Signal;HPM_P1;HPM_P2
2024/01/04 00:00:15;;;;;;;2.47;1.38;;;;;;;8.18;88.68;96340.56;4931428;29;20051;-70
2024/01/04 00:02:43;;;;;;;1.63;1.40;;;;;;;8.11;88.74;96323.16;4916229;29;20047;-69
2024/01/04 00:05:08;;;;;;;2.20;1.40;;;;;;;8.18;89.84;96340.56;4931363;29;20110;-70
2024/01/04 00:07:34;;;;;;;2.50;1.50;;;;;;;8.15;90.53;96335.75;4931284;29;20115;-69
2024/01/04 00:09:59;;;;;;;3.22;1.48;;;;;;;8.19;89.90;96336.00;4926913;29;20027;-69
2024/01/04 00:12:24;;;;;;;2.17;1.73;;;;;;;8.10;89.85;96298.22;4930268;29;20028;-70
2024/01/04 00:14:50;;;;;;;3.72;1.70;;;;;;;8.18;90.08;96318.31;4943567;29;20443;-71
2024/01/04 00:17:15;;;;;;;3.22;1.90;;;;;;;8.10;90.44;96333.06;4934896;29;20040;-72
2024/01/04 00:19:41;;;;;;;2.40;1.88;;;;;;;8.24;90.52;96334.09;4927776;29;20032;-72
2024/01/04 00:22:06;;;;;;;3.45;1.90;;;;;;;8.17;89.95;96316.69;4929313;29;20160;-72
2024/01/04 00:24:31;;;;;;;3.65;2.00;;;;;;;8.27;90.39;96333.59;4934378;29;20031;-72
2024/01/04 00:26:57;;;;;;;4.15;1.88;;;;;;;8.35;89.15;96324.94;4943136;29;20039;-72
2024/01/04 00:29:22;;;;;;;2.10;1.70;;;;;;;8.32;89.40;96317.47;4911309;29;20031;-72
2024/01/04 00:31:48;;;;;;;3.72;1.65;;;;;;;8.34;89.04;96318.00;4930003;29;20043;-71
2024/01/04 00:34:14;;;;;;;2.53;1.85;;;;;;;8.42;88.96;96329.22;4927708;29;20023;-71
2024/01/04 00:36:39;;;;;;;3.50;1.65;;;;;;;8.25;88.82;96292.81;4946962;29;20055;-71
2024/01/04 00:39:06;;;;;;;4.88;1.80;;;;;;;8.42;88.56;96310.44;4932477;29;20079;-71
2024/01/04 00:41:32;;;;;;;2.83;1.80;;;;;;;8.34;88.71;96319.88;4932175;29;20039;-71
2024/01/04 00:43:58;;;;;;;4.70;2.08;;;;;;;8.32;88.70;96319.34;4932606;29;20031;-71
2024/01/04 00:46:23;;;;;;;2.42;1.70;;;;;;;8.39;89.01;96327.09;4923317;29;20408;-71
2024/01/04 00:48:49;;;;;;;3.80;1.80;;;;;;;8.38;89.33;96322.81;4930207;29;20484;-71
2024/01/04 00:51:14;;;;;;;3.60;1.88;;;;;;;8.30;89.95;96332.25;4929155;29;20035;-71
2024/01/04 00:53:40;;;;;;;3.22;1.80;;;;;;;8.33;89.68;96327.09;4929565;29;20708;-71
2024/01/04 00:56:05;;;;;;;3.05;1.90;;;;;;;8.31;90.36;96328.47;4910815;29;20048;-71
2024/01/04 00:58:31;;;;;;;4.47;2.60;;;;;;;8.29;89.94;96327.94;4933288;29;20038;-71
2024/01/04 01:00:57;;;;;;;4.10;2.25;;;;;;;8.25;90.34;96330.34;4932515;29;20050;-72
2024/01/04 01:03:23;;;;;;;5.68;1.70;;;;;;;8.31;90.02;96337.31;4900992;29;20668;-69
2024/01/04 01:05:49;;;;;;;3.35;1.83;;;;;;;8.37;89.20;96353.38;4929208;29;20035;-71
2024/01/04 01:08:15;;;;;;;3.72;1.95;;;;;;;8.22;89.55;96346.97;4910364;29;20744;-71
2024/01/04 01:10:41;;;;;;;6.25;2.00;;;;;;;8.31;89.26;96353.41;4927713;29;20413;-71
2024/01/04 01:13:06;;;;;;;3.22;1.90;;;;;;;8.30;89.37;96354.50;4925592;29;20035;-71
2024/01/04 01:15:32;;;;;;;4.65;1.80;;;;;;;8.24;89.39;96339.47;4930245;29;20519;-70
2024/01/04 01:17:57;;;;;;;3.30;1.65;;;;;;;8.15;89.24;96351.03;4925274;29;20051;-70
2024/01/04 01:20:23;;;;;;;6.20;2.00;;;;;;;8.34;88.71;96362.78;4930628;29;20058;-71
2024/01/04 01:22:48;;;;;;;2.95;1.58;;;;;;;8.23;88.56;96370.06;4933079;29;20476;-71
2024/01/04 01:25:14;;;;;;;3.05;1.50;;;;;;;8.39;88.52;96388.78;4928968;29;20032;-71
2024/01/04 01:27:39;;;;;;;3.72;1.83;;;;;;;8.33;87.70;96385.31;4930812;29;20577;-71
2024/01/04 01:30:05;;;;;;;3.33;1.60;;;;;;;8.35;87.18;96389.31;4911882;29;20067;-71
2024/01/04 01:32:31;;;;;;;4.57;1.88;;;;;;;8.44;87.39;96383.41;4928976;29;20028;-71
2024/01/04 01:34:57;;;;;;;2.50;1.52;;;;;;;8.49;86.57;96396.78;4925320;29;20044;-71
2024/01/04 01:37:23;;;;;;;2.80;1.58;;;;;;;8.42;86.70;96393.59;4931756;29;20063;-70
2024/01/04 01:39:48;;;;;;;3.70;1.58;;;;;;;8.46;86.58;96395.47;4924763;29;20515;-70
2024/01/04 01:42:13;;;;;;;4.45;1.30;;;;;;;8.41;85.87;96381.25;4909509;29;20163;-69
2024/01/04 01:44:39;;;;;;;2.88;1.70;;;;;;;8.54;86.23;96391.41;4930638;29;20044;-70
2024/01/04 01:47:05;;;;;;;4.00;1.52;;;;;;;8.42;85.87;96377.50;4924444;29;20035;-70
2024/01/04 01:49:31;;;;;;;2.55;1.63;;;;;;;8.49;86.06;96383.38;4912856;29;20119;-69
2024/01/04 01:51:57;;;;;;;3.92;1.55;;;;;;;8.54;86.36;96391.41;4911446;29;20048;-69
2024/01/04 01:54:22;;;;;;;2.80;1.50;;;;;;;8.46;87.10;96389.28;4928841;29;20039;-69
2024/01/04 01:56:48;;;;;;;3.45;1.65;;;;;;;8.45;87.08;96399.19;4925051;29;20086;-69
2024/01/04 01:59:13;;;;;;;5.10;1.60;;;;;;;8.31;86.95;96382.91;4912499;29;20126;-69
2024/01/04 02:01:39;;;;;;;2.38;1.35;;;;;;;8.38;87.09;96403.28;4938861;29;20024;-69
2024/01/04 02:04:04;;;;;;;3.58;1.92;;;;;;;8.43;87.67;96398.69;4911374;29;20389;-69
2024/01/04 02:06:29;;;;;;;3.05;1.50;;;;;;;8.35;88.10;96397.34;4912833;29;20051;-71
2024/01/04 02:08:55;;;;;;;3.10;2.20;;;;;;;8.28;87.99;96391.47;4916148;29;20043;-71
2024/01/04 02:11:22;;;;;;;2.45;1.58;;;;;;;8.33;87.84;96396.84;4935550;29;20055;-71
2024/01/04 02:13:48;;;;;;;3.05;1.50;;;;;;;8.30;88.70;96408.13;4924827;29;20072;-70
2024/01/04 02:16:14;;;;;;;3.78;1.65;;;;;;;8.29;88.19;96403.03;4928632;29;20024;-70
2024/01/04 02:18:39;;;;;;;1.73;1.40;;;;;;;8.29;87.98;96427.16;4930522;29;20466;-71
2024/01/04 02:21:05;;;;;;;1.80;1.23;;;;;;;8.21;87.63;96409.72;4912021;29;20032;-71
2024/01/04 02:23:31;;;;;;;2.33;1.20;;;;;;;8.31;87.87;96412.41;4931793;29;20039;-70
2024/01/04 02:25:56;;;;;;;2.05;0.95;;;;;;;8.23;87.13;96418.31;4927047;29;20028;-71
2024/01/04 02:28:21;;;;;;;2.58;1.10;;;;;;;8.26;86.92;96417.78;4931064;29;20122;-71
2024/01/04 02:30:47;;;;;;;1.05;0.95;;;;;;;8.23;87.85;96418.31;4934461;29;20078;-70
2024/01/04 02:33:12;;;;;;;1.90;1.00;;;;;;;8.15;87.54;96426.91;4931197;29;20060;-71
2024/01/04 02:35:38;;;;;;;2.13;1.25;;;;;;;8.19;87.91;96417.22;4910554;29;20063;-70
2024/01/04 02:38:03;;;;;;;1.88;1.17;;;;;;;8.09;88.54;96414.59;4934914;29;20031;-70
2024/01/04 02:40:29;;;;;;;1.42;1.00;;;;;;;8.17;87.89;96424.75;4936137;29;20024;-70
2024/01/04 02:42:55;;;;;;;2.28;1.20;;;;;;;8.23;87.97;96429.03;4928587;29;20031;-70
2024/01/04 02:45:20;;;;;;;2.17;1.23;;;;;;;8.21;88.32;96436.53;4930627;29;20054;-70
2024/01/04 02:47:45;;;;;;;1.48;1.17;;;;;;;8.10;88.58;96424.22;4927184;29;20110;-70
2024/01/04 02:50:11;;;;;;;1.75;1.23;;;;;;;8.07;89.54;96414.06;4950756;29;20456;-70
2024/01/04 02:52:37;;;;;;;2.45;1.50;;;;;;;8.10;89.92;96445.69;4935978;29;20063;-70
2024/01/04 02:55:03;;;;;;;2.60;1.73;;;;;;;8.10;90.44;96429.59;4932027;29;20440;-70
2024/01/04 02:57:28;;;;;;;1.70;1.60;;;;;;;8.00;90.50;96429.63;4916515;29;20035;-70
2024/01/04 02:59:54;;;;;;;1.95;1.50;;;;;;;8.01;90.20;96419.69;4932141;29;20051;-70
2024/01/04 03:02:19;;;;;;;4.88;1.90;;;;;;;8.04;90.82;96428.00;4929458;29;20153;-70
2024/01/04 03:04:45;;;;;;;3.40;1.88;;;;;;;8.00;91.81;96434.19;4937325;29;20542;-70
2024/01/04 03:07:10;;;;;;;3.22;1.85;;;;;;;7.88;91.53;96399.63;4952665;29;20050;-71
2024/01/04 03:09:35;;;;;;;2.25;2.05;;;;;;;7.94;92.37;96425.34;4931030;29;20447;-71
2024/01/04 03:12:01;;;;;;;3.45;2.10;;;;;;;7.90;91.71;96418.91;4924812;29;20039;-71
2024/01/04 03:14:26;;;;;;;3.45;2.22;;;;;;;8.05;92.30;96437.63;4942549;29;20476;-71
2024/01/04 03:16:52;;;;;;;4.38;2.20;;;;;;;7.95;92.19;96426.97;4937472;29;20039;-71
2024/01/04 03:19:17;;;;;;;3.15;2.33;;;;;;;7.96;92.28;96425.88;4934523;29;20024;-71
2024/01/04 03:21:42;;;;;;;6.97;2.33;;;;;;;7.87;92.93;96410.59;4930127;29;20051;-71
2024/01/04 03:24:08;;;;;;;4.45;2.67;;;;;;;7.87;93.14;96413.28;4951383;28;20027;-71
2024/01/04 03:26:33;;;;;;;2.90;2.35;;;;;;;8.02;92.73;96421.31;4929369;29;20040;-71
2024/01/04 03:28:59;;;;;;;4.95;3.00;;;;;;;7.90;92.72;96402.03;4934424;28;20141;-71
2024/01/04 03:31:24;;;;;;;2.65;2.28;;;;;;;7.99;92.52;96428.00;4914472;29;20078;-71
2024/01/04 03:33:49;;;;;;;2.92;2.28;;;;;;;7.78;92.82;96398.84;4930661;29;20036;-71
2024/01/04 03:36:15;;;;;;;4.55;2.33;;;;;;;7.99;92.66;96422.66;4930531;29;20135;-69
2024/01/04 03:38:41;;;;;;;2.45;2.20;;;;;;;7.91;93.22;96439.28;4937148;29;20040;-69
2024/01/04 03:41:07;;;;;;;2.75;1.92;;;;;;;7.92;92.74;96427.50;4951063;29;20035;-70
2024/01/04 03:43:33;;;;;;;3.58;2.38;;;;;;;8.00;92.32;96432.31;4945087;28;20408;-70
2024/01/04 03:45:58;;;;;;;3.30;2.20;;;;;;;8.03;92.75;96426.38;4949529;29;20035;-70
2024/01/04 03:48:23;;;;;;;3.15;2.20;;;;;;;8.09;92.47;96429.88;4926732;29;20427;-70
2024/01/04 03:50:49;;;;;;;2.90;2.13;;;;;;;8.01;91.97;96430.41;4931507;29;20042;-70
2024/01/04 03:53:14;;;;;;;3.08;1.90;;;;;;;7.92;93.24;96438.22;4950719;28;20068;-70
2024/01/04 03:55:39;;;;;;;2.92;1.75;;;;;;;7.94;92.71;96438.75;4929091;29;20035;-70
2024/01/04 03:58:05;;;;;;;3.55;2.40;;;;;;;7.95;92.91;96435.00;4950384;29;20546;-70
2024/01/04 04:00:30;;;;;;;3.58;1.98;;;;;;;7.90;92.67;96436.88;4944332;29;20055;-70
2024/01/04 04:02:56;;;;;;;3.33;1.90;;;;;;;7.87;93.05;96413.28;4948994;28;20031;-70
2024/01/04 04:05:22;;;;;;;2.58;1.90;;;;;;;7.87;93.02;96440.88;4932567;29;20118;-70
2024/01/04 04:07:47;;;;;;;3.35;2.42;;;;;;;7.93;92.93;96453.22;4931093;29;20376;-71
2024/01/04 04:10:12;;;;;;;2.45;1.75;;;;;;;7.88;93.53;96458.59;4947432;29;20508;-70
2024/01/04 04:12:38;;;;;;;4.47;2.10;;;;;;;7.93;92.69;96468.50;4947153;29;20106;-70
2024/01/04 04:15:04;;;;;;;3.47;2.30;;;;;;;7.84;92.70;96452.16;4944837;29;20039;-70
2024/01/04 04:17:29;;;;;;;2.70;1.88;;;;;;;7.95;92.49;96464.47;4947396;29;20416;-70
2024/01/04 04:19:54;;;;;;;1.63;1.52;;;;;;;7.96;93.06;96474.09;4949857;29;20043;-70
2024/01/04 04:22:20;;;;;;;2.30;2.10;;;;;;;7.97;93.00;96477.59;4928001;29;20023;-70
2024/01/04 04:24:45;;;;;;;2.53;1.80;;;;;;;8.00;92.75;96472.53;4935564;29;20043;-71
2024/01/04 04:27:10;;;;;;;2.70;1.50;;;;;;;8.03;92.57;96479.19;4952194;29;20103;-71
2024/01/04 04:29:42;;;;;;;1.58;1.45;;;;;;;8.03;91.93;96498.75;4934445;29;20038;-70
2024/01/04 04:32:08;;;;;;;3.17;1.50;;;;;;;8.00;92.26;96485.13;4934475;29;20086;-70
2024/01/04 04:34:36;;;;;;;1.35;1.25;;;;;;;8.00;92.51;96483.25;4927308;29;20043;-69
2024/01/04 04:37:02;;;;;;;2.10;1.80;;;;;;;7.98;91.92;96480.00;4951262;29;20038;-69
2024/01/04 04:39:28;;;;;;;1.60;1.50;;;;;;;8.07;92.16;96494.50;4953146;29;20031;-70
2024/01/04 04:41:53;;;;;;;2.30;1.65;;;;;;;8.11;92.38;96505.47;4914316;28;20035;-70
2024/01/04 04:44:19;;;;;;;1.60;1.50;;;;;;;8.15;92.11;96499.28;4947558;28;20040;-70
2024/01/04 04:46:44;;;;;;;2.80;1.40;;;;;;;8.05;92.21;96511.91;4929418;29;20031;-71
2024/01/04 04:49:09;;;;;;;2.97;1.70;;;;;;;8.06;92.20;96508.97;4945679;29;20050;-71
2024/01/04 04:51:35;;;;;;;2.25;1.70;;;;;;;8.04;91.90;96521.84;4935434;29;20145;-70
2024/01/04 04:54:00;;;;;;;3.35;1.70;;;;;;;8.07;91.69;96532.03;4949653;28;20046;-70
2024/01/04 04:56:26;;;;;;;4.32;1.70;;;;;;;8.11;92.17;96527.72;4945276;29;20055;-70
2024/01/04 04:58:51;;;;;;;2.50;1.70;;;;;;;8.13;91.65;96536.31;4948580;29;20046;-70
2024/01/04 05:01:16;;;;;;;3.17;1.77;;;;;;;8.08;91.78;96528.25;4927143;29;20062;-70
2024/01/04 05:03:42;;;;;;;3.20;2.00;;;;;;;8.15;92.01;96534.16;4946434;28;20032;-70
2024/01/04 05:06:10;;;;;;;3.50;1.80;;;;;;;8.06;92.02;96541.13;4950827;29;20123;-69
2024/01/04 05:08:36;;;;;;;2.30;1.65;;;;;;;8.13;91.56;96552.38;4944852;29;20043;-69
2024/01/04 05:11:02;;;;;;;3.13;1.80;;;;;;;7.99;91.30;96535.22;4950173;29;20039;-69
2024/01/04 05:13:27;;;;;;;4.28;1.88;;;;;;;8.12;91.53;96553.44;4942343;29;20031;-69
2024/01/04 05:15:53;;;;;;;2.95;1.70;;;;;;;8.05;91.25;96566.31;4948768;29;20051;-69
2024/01/04 05:18:18;;;;;;;3.78;1.75;;;;;;;8.04;90.76;96548.63;4932001;29;20042;-70
2024/01/04 05:20:43;;;;;;;2.47;1.55;;;;;;;8.10;90.74;96557.47;4931561;29;20475;-70
2024/01/04 05:23:09;;;;;;;2.38;1.38;;;;;;;8.02;91.13;96561.50;4933834;29;20043;-71
2024/01/04 05:25:34;;;;;;;4.47;1.60;;;;;;;8.05;90.38;96549.44;4935300;29;20495;-70
2024/01/04 05:28:00;;;;;;;3.00;1.63;;;;;;;8.03;90.79;96552.38;4929931;29;20027;-70
2024/01/04 05:30:25;;;;;;;2.67;1.63;;;;;;;8.12;91.04;96579.47;4917860;29;20582;-70
2024/01/04 05:32:51;;;;;;;9.38;8.45;;;;;;;8.08;91.49;96581.88;4931520;28;20054;-68
2024/01/04 05:35:16;;;;;;;6.50;5.82;;;;;;;8.08;91.85;96587.22;4911652;29;20128;-70
2024/01/04 05:37:41;;;;;;;6.75;6.05;;;;;;;8.00;91.36;96590.47;4951644;29;20031;-70
2024/01/04 05:40:07;;;;;;;5.38;4.88;;;;;;;8.01;92.60;96604.66;4927489;29;20051;-70
2024/01/04 05:42:32;;;;;;;10.63;9.73;;;;;;;7.97;92.58;96617.78;4944818;28;20024;-69
2024/01/04 05:44:58;;;;;;;3.85;2.20;;;;;;;7.90;92.56;96608.41;4933166;29;20465;-71
2024/01/04 05:47:23;;;;;;;2.38;2.15;;;;;;;8.03;92.49;96611.34;4942031;29;20034;-71
2024/01/04 05:49:49;;;;;;;3.05;2.72;;;;;;;8.08;92.75;96624.78;4925068;29;20038;-70
2024/01/04 05:52:14;;;;;;;2.88;2.28;;;;;;;8.05;92.97;96621.84;4934994;29;20031;-70
2024/01/04 05:54:40;;;;;;;3.05;1.92;;;;;;;7.99;92.63;96612.97;4950146;28;20562;-71
2024/01/04 05:57:06;;;;;;;3.00;2.72;;;;;;;7.98;92.95;96614.03;4933504;29;20062;-71
2024/01/04 05:59:31;;;;;;;3.75;1.95;;;;;;;8.02;92.57;96615.13;4938671;29;20443;-71
2024/01/04 06:01:57;;;;;;;3.63;2.40;;;;;;;8.05;92.23;96619.16;4953834;29;20082;-70
2024/01/04 06:04:22;;;;;;;4.03;3.10;;;;;;;7.96;92.27;96626.13;4932781;29;20122;-70
2024/01/04 06:06:47;;;;;;;5.80;5.30;;;;;;;7.98;92.39;96638.16;4935694;29;20034;-71
2024/01/04 06:09:13;;;;;;;2.22;1.92;;;;;;;8.05;92.38;96643.28;4932773;29;20488;-70
2024/01/04 06:11:38;;;;;;;3.40;2.15;;;;;;;8.15;92.06;96652.13;4922997;29;20077;-70
2024/01/04 06:14:07;;;;;;;3.90;1.70;;;;;;;8.15;92.08;96662.84;4931552;29;20460;-70
2024/01/04 06:16:33;;;;;;;2.30;1.70;;;;;;;8.11;91.61;96659.09;4921518;29;20042;-69
2024/01/04 06:18:58;;;;;;;2.88;2.30;;;;;;;8.05;91.68;96665.50;4949335;29;20039;-70
2024/01/04 06:21:24;;;;;;;4.75;2.20;;;;;;;7.98;91.27;96667.63;4932370;29;20063;-70
2024/01/04 06:23:50;;;;;;;8.77;6.65;;;;;;;8.04;91.20;96669.28;4954405;28;20491;-71
2024/01/04 06:26:19;;;;;;;4.10;2.60;;;;;;;8.09;91.29;96674.66;4934479;29;20030;-70
2024/01/04 06:28:44;;;;;;;1.88;1.60;;;;;;;7.85;90.85;96661.97;4920414;29;20043;-71
2024/01/04 06:31:10;;;;;;;3.80;1.85;;;;;;;8.12;90.81;96700.91;4938287;29;20035;-70
2024/01/04 06:33:35;;;;;;;6.03;4.35;;;;;;;8.07;90.31;96692.88;4933577;29;20032;-70
2024/01/04 06:36:02;;;;;;;6.35;4.10;;;;;;;8.03;90.04;96690.97;4929805;29;20128;-70
2024/01/04 06:38:28;;;;;;;6.93;4.82;;;;;;;8.15;89.35;96699.56;4955270;29;20147;-70
2024/01/04 06:40:57;;;;;;;2.28;2.05;;;;;;;8.14;89.99;96704.16;4935406;29;20023;-70
2024/01/04 06:43:22;;;;;;;3.22;2.33;;;;;;;8.13;89.04;96713.25;4937833;29;20144;-71
2024/01/04 06:45:48;;;;;;;3.25;2.00;;;;;;;7.94;89.17;96669.25;4950925;29;20031;-70
2024/01/04 06:48:13;;;;;;;3.47;1.70;;;;;;;8.15;89.74;96721.84;4921053;29;20415;-70
2024/01/04 06:50:38;;;;;;;2.58;1.40;;;;;;;8.11;88.85;96719.94;4948665;29;20108;-69
2024/01/04 06:53:04;;;;;;;2.28;1.20;;;;;;;8.07;89.42;96729.59;4954129;28;20035;-73
2024/01/04 06:55:29;;;;;;;2.63;1.50;;;;;;;8.09;89.03;96719.41;4912880;29;20106;-71
2024/01/04 06:57:55;;;;;;;2.25;1.30;;;;;;;8.12;88.48;96719.69;4937018;29;20050;-71
2024/01/04 07:00:20;;;;;;;1.30;1.10;;;;;;;8.29;88.04;96732.88;4926605;29;20480;-72
2024/01/04 07:02:46;;;;;;;2.03;1.23;;;;;;;8.16;87.88;96699.31;4937411;29;20027;-74
2024/01/04 07:05:12;;;;;;;1.38;1.20;;;;;;;8.31;87.77;96736.91;4954255;28;20497;-75
2024/01/04 07:07:37;;;;;;;1.95;1.23;;;;;;;8.24;88.20;96728.28;4936575;29;20044;-71
2024/01/04 07:10:03;;;;;;;1.40;1.30;;;;;;;8.27;88.11;96751.94;4929696;29;20126;-71
2024/01/04 07:12:28;;;;;;;1.75;1.20;;;;;;;8.13;87.06;96734.72;4937108;29;20113;-71
2024/01/04 07:14:54;;;;;;;2.13;1.20;;;;;;;8.28;87.46;96748.16;4918077;29;20118;-71
2024/01/04 07:17:20;;;;;;;2.22;1.40;;;;;;;8.28;87.53;96747.38;4930320;29;20411;-70
2024/01/04 07:19:46;;;;;;;1.63;1.23;;;;;;;8.20;87.32;96762.06;4937260;29;20110;-71
2024/01/04 07:22:11;;;;;;;1.35;1.27;;;;;;;8.19;87.50;96754.31;4953605;29;20106;-71
2024/01/04 07:24:37;;;;;;;4.68;1.40;;;;;;;8.17;87.71;96757.22;4929919;29;20031;-71
2024/01/04 07:27:03;;;;;;;1.40;1.30;;;;;;;8.21;87.19;96766.34;4936748;29;20039;-70
2024/01/04 07:29:29;;;;;;;1.30;1.20;;;;;;;8.30;86.13;96764.00;4950964;28;20034;-71
2024/01/04 07:31:55;;;;;;;1.52;1.30;;;;;;;8.23;87.55;96766.91;4954332;29;20039;-70
2024/01/04 07:34:21;;;;;;;1.45;1.20;;;;;;;8.28;86.49;96761.56;4950544;29;20082;-71
2024/01/04 07:36:47;;;;;;;1.60;1.20;;;;;;;8.22;86.27;96770.66;4934401;29;20043;-71
2024/01/04 07:39:12;;;;;;;1.55;1.40;;;;;;;8.20;86.43;96782.72;4949667;29;20090;-70
2024/01/04 07:41:38;;;;;;;1.83;1.20;;;;;;;8.09;87.53;96776.53;4932802;29;20131;-70
2024/01/04 07:44:04;;;;;;;2.45;1.15;;;;;;;8.19;87.11;96784.59;4929571;29;20027;-71
2024/01/04 07:46:30;;;;;;;3.40;1.30;;;;;;;8.22;87.10;96781.38;4939675;29;20046;-70
2024/01/04 07:48:56;;;;;;;1.70;1.23;;;;;;;8.14;87.33;96771.19;4943972;29;20455;-70
2024/01/04 07:51:22;;;;;;;1.30;1.20;;;;;;;8.24;86.86;96781.94;4931106;29;20129;-71
2024/01/04 07:53:47;;;;;;;1.52;1.42;;;;;;;8.18;87.38;96783.00;4950082;28;20055;-70
2024/01/04 07:56:12;;;;;;;1.55;1.40;;;;;;;8.17;88.20;96793.97;4947040;29;20042;-70
2024/01/04 07:58:38;;;;;;;3.05;1.90;;;;;;;8.24;87.76;96795.34;4919743;29;20624;-71
2024/01/04 08:01:03;;;;;;;1.40;1.30;;;;;;;8.19;87.88;96789.94;4929077;29;20218;-73
2024/01/04 08:03:30;;;;;;;2.10;1.90;;;;;;;8.20;88.05;96788.88;4933624;29;20396;-71
2024/01/04 08:05:56;;;;;;;1.80;1.45;;;;;;;8.21;87.86;96809.25;4953670;29;20391;-71
2024/01/04 08:08:21;;;;;;;1.83;1.40;;;;;;;8.21;87.66;96790.50;4949712;29;20547;-70
2024/01/04 08:10:46;;;;;;;2.80;1.30;;;;;;;8.10;88.05;96798.75;4934852;29;20534;-71
2024/01/04 08:13:16;;;;;;;1.73;1.50;;;;;;;8.17;88.23;96807.38;4947652;29;20020;-72
2024/01/04 08:15:42;;;;;;;4.35;1.42;;;;;;;8.12;87.88;96796.66;4933052;29;20038;-72
2024/01/04 08:18:08;;;;;;;1.65;1.55;;;;;;;8.07;88.38;96826.94;4947414;29;20057;-72
2024/01/04 08:20:33;;;;;;;2.92;2.00;;;;;;;8.15;88.83;96829.09;4949804;29;20035;-72
2024/01/04 08:22:59;;;;;;;2.15;1.60;;;;;;;8.07;89.09;96836.84;4928000;29;20031;-71
2024/01/04 08:25:24;;;;;;;2.63;1.58;;;;;;;8.03;88.83;96803.56;4936144;29;20031;-71
2024/01/04 08:27:50;;;;;;;2.55;1.70;;;;;;;8.07;89.23;96832.28;4936161;29;20450;-72
2024/01/04 08:30:15;;;;;;;1.70;1.60;;;;;;;8.02;89.95;96829.59;4936354;29;20046;-72
2024/01/04 08:32:41;;;;;;;1.70;1.60;;;;;;;7.92;90.27;96837.56;4947679;28;20040;-72
2024/01/04 08:35:07;;;;;;;1.80;1.70;;;;;;;8.06;89.41;96836.03;4946028;29;20518;-72
2024/01/04 08:37:32;;;;;;;2.58;1.67;;;;;;;8.00;89.91;96842.44;4928792;29;20508;-72
2024/01/04 08:39:58;;;;;;;1.50;1.40;;;;;;;8.08;89.24;96849.97;4945340;29;20043;-72
2024/01/04 08:42:23;;;;;;;2.42;2.10;;;;;;;8.08;89.27;96841.94;4949861;29;20072;-72
2024/01/04 08:44:48;;;;;;;3.22;2.05;;;;;;;8.08;89.86;96839.25;4952456;29;20384;-71
2024/01/04 08:47:14;;;;;;;2.65;2.00;;;;;;;7.95;89.51;96829.00;4951913;29;20030;-72
2024/01/04 08:49:39;;;;;;;4.13;1.70;;;;;;;8.04;89.49;96842.72;4936005;29;20492;-72
2024/01/04 08:52:05;;;;;;;2.35;1.80;;;;;;;8.15;88.94;96849.72;4946681;29;20543;-72
2024/01/04 08:54:30;;;;;;;6.00;2.30;;;;;;;8.06;89.61;96836.03;4930249;29;20062;-70
2024/01/04 08:56:56;;;;;;;3.83;1.80;;;;;;;8.21;89.44;96854.84;4927411;29;20027;-68
2024/01/04 08:59:21;;;;;;;3.00;1.88;;;;;;;8.19;88.82;96873.06;4931051;29;20047;-71
2024/01/04 09:01:47;;;;;;;1.60;1.42;;;;;;;8.20;88.24;96853.25;4935249;29;20047;-72
2024/01/04 09:04:13;;;;;;;2.90;1.63;;;;;;;8.19;88.36;96853.53;4946775;28;20046;-72
2024/01/04 09:06:39;;;;;;;2.55;1.67;;;;;;;8.29;87.74;96873.16;4931509;29;20079;-72
2024/01/04 09:09:07;;;;;;;2.17;1.40;;;;;;;8.24;86.90;96870.41;4935688;28;20035;-71
2024/01/04 09:11:38;;;;;;;1.98;1.33;;;;;;;8.22;86.37;96904.75;4946814;29;20024;-71
2024/01/04 09:14:07;;;;;;;2.35;1.42;;;;;;;8.26;86.08;96900.50;4928822;29;20047;-72
2024/01/04 09:16:34;;;;;;;1.30;1.20;;;;;;;8.29;86.09;96894.63;4935625;29;20035;-71
2024/01/04 09:19:00;;;;;;;3.05;1.67;;;;;;;8.22;85.98;96902.06;4952257;29;20046;-71
2024/01/04 09:21:26;;;;;;;2.05;1.20;;;;;;;8.14;85.37;96897.22;4942834;29;20023;-71
2024/01/04 09:23:52;;;;;;;1.35;1.25;;;;;;;8.25;84.88;96909.59;4932910;29;20476;-72
2024/01/04 09:26:18;;;;;;;1.73;1.10;;;;;;;8.16;83.77;96899.63;4941566;29;20023;-72
2024/01/04 09:28:43;;;;;;;2.28;1.20;;;;;;;8.38;84.19;96916.38;4936284;28;20388;-71
2024/01/04 09:31:08;;;;;;;1.55;1.15;;;;;;;8.49;83.34;96919.91;4942034;29;20039;-72
2024/01/04 09:33:34;;;;;;;1.35;1.10;;;;;;;8.52;82.96;96908.69;4941536;29;20073;-72
2024/01/04 09:36:00;;;;;;;2.10;1.35;;;;;;;8.72;82.77;96936.38;4958845;28;20047;-72
2024/01/04 09:38:27;;;;;;;2.00;1.20;;;;;;;8.75;82.10;96951.16;4925690;29;20130;-71
2024/01/04 09:40:58;;;;;;;2.10;1.38;;;;;;;8.81;81.97;96939.34;4958904;29;20398;-71
2024/01/04 09:43:24;;;;;;;3.90;1.50;;;;;;;8.82;81.69;96940.97;4935140;29;20042;-72
2024/01/04 09:45:50;;;;;;;1.05;0.98;;;;;;;8.80;82.11;96948.47;4954177;28;20436;-72
2024/01/04 09:48:18;;;;;;;1.55;1.45;;;;;;;8.83;81.69;96939.91;4928930;29;20066;-71
2024/01/04 09:50:44;;;;;;;2.22;1.20;;;;;;;8.91;81.75;96953.59;4924950;29;20085;-71
2024/01/04 09:53:11;;;;;;;2.42;1.10;;;;;;;8.84;81.52;96939.66;4940317;29;20050;-71
2024/01/04 09:55:36;;;;;;;2.50;1.30;;;;;;;8.93;81.74;96958.72;4917559;29;20511;-71
2024/01/04 09:58:03;;;;;;;1.75;1.17;;;;;;;8.71;81.79;96940.13;4933725;28;20078;-72
2024/01/04 10:00:28;;;;;;;1.30;0.88;;;;;;;8.77;81.57;96957.06;4923498;29;20027;-72
2024/01/04 10:02:54;;;;;;;1.92;1.10;;;;;;;8.73;82.18;96958.63;4939748;28;20031;-72
2024/01/04 10:05:20;;;;;;;2.78;1.13;;;;;;;8.65;81.52;96945.75;4921433;29;20039;-72
2024/01/04 10:08:14;;;;;;;1.92;1.23;;;;;;;8.62;81.19;96940.88;4941720;29;20420;-72
2024/01/04 10:10:40;;;;;;;1.45;1.30;;;;;;;8.71;81.61;96961.59;4941663;29;20050;-71
2024/01/04 10:13:06;;;;;;;1.35;1.20;;;;;;;8.73;81.87;96974.75;4936761;29;20081;-72
2024/01/04 10:15:32;;;;;;;2.05;1.05;;;;;;;8.70;81.24;96960.00;4941300;29;20114;-72
2024/01/04 10:17:58;;;;;;;1.58;1.20;;;;;;;8.74;81.75;96976.38;4958562;28;20471;-71
2024/01/04 10:20:24;;;;;;;2.25;1.10;;;;;;;8.68;81.36;96961.31;4941453;29;20089;-72
2024/01/04 10:22:49;;;;;;;0.90;0.90;;;;;;;8.74;81.40;96960.28;4941362;28;20451;-72
2024/01/04 10:25:18;;;;;;;1.60;1.00;;;;;;;8.72;80.83;96962.41;4941147;29;20106;-71
2024/01/04 10:27:55;;;;;;;1.48;0.88;;;;;;;8.77;80.49;96965.13;4938377;29;20429;-71
2024/01/04 10:30:20;;;;;;;1.45;0.90;;;;;;;8.69;81.18;96963.75;4924913;29;20078;-72
2024/01/04 10:32:50;;;;;;;2.20;1.00;;;;;;;8.72;80.84;96963.22;4940603;28;20439;-72
2024/01/04 10:35:23;;;;;;;1.00;1.00;;;;;;;8.87;80.55;96978.56;4940430;28;20122;-72
2024/01/04 10:37:57;;;;;;;1.80;1.20;;;;;;;8.84;80.44;96973.75;4937479;29;20039;-72
2024/01/04 10:40:22;;;;;;;1.95;1.15;;;;;;;8.87;81.21;96976.69;4957266;28;20054;-72
2024/01/04 10:42:53;;;;;;;1.52;1.20;;;;;;;8.72;81.48;96973.16;4958665;28;20034;-72
2024/01/04 10:45:27;;;;;;;1.60;1.30;;;;;;;8.72;81.37;96989.25;4917470;29;20052;-72
2024/01/04 10:47:52;;;;;;;2.47;1.20;;;;;;;8.72;81.84;96981.19;4949045;29;20059;-72
2024/01/04 10:50:22;;;;;;;0.90;0.90;;;;;;;8.62;82.54;96973.09;4932220;29;20032;-71
2024/01/04 10:52:51;;;;;;;1.35;1.10;;;;;;;8.70;82.60;96996.75;4937502;28;20039;-72
2024/01/04 10:55:20;;;;;;;1.55;1.10;;;;;;;8.72;82.64;97000.00;4934670;29;20480;-71
2024/01/04 10:57:46;;;;;;;3.22;1.20;;;;;;;8.58;82.90;96982.75;4937205;29;20499;-71
2024/01/04 11:00:13;;;;;;;1.60;1.20;;;;;;;8.56;82.78;96974.16;4932706;29;20510;-71
2024/01/04 11:02:39;;;;;;;2.30;1.38;;;;;;;8.65;82.67;96994.06;4934832;29;20456;-72
2024/01/04 11:05:06;;;;;;;1.52;1.30;;;;;;;8.66;82.96;97011.78;4937707;29;20035;-71
2024/01/04 11:07:31;;;;;;;1.63;1.45;;;;;;;8.77;82.74;97008.06;4914177;29;20035;-71
2024/01/04 11:09:57;;;;;;;1.60;1.50;;;;;;;8.72;82.65;96994.63;4929648;29;20039;-71
2024/01/04 11:12:25;;;;;;;1.92;1.40;;;;;;;8.63;82.67;96993.50;4950963;29;20042;-72
2024/01/04 11:14:51;;;;;;;1.80;1.70;;;;;;;8.67;82.04;96978.50;4937496;29;20489;-71
2024/01/04 11:17:32;;;;;;;1.40;1.30;;;;;;;8.79;81.58;96984.44;4932759;29;20038;-71
2024/01/04 11:20:10;;;;;;;1.52;1.30;;;;;;;8.77;81.97;96982.03;4931111;29;20496;-71
2024/01/04 11:23:03;;;;;;;1.90;1.52;;;;;;;8.78;81.56;96982.81;4936029;29;20071;-71
2024/01/04 11:26:14;;;;;;;1.40;0.98;;;;;;;8.83;81.31;97010.50;4937276;29;20570;-71
2024/01/04 11:28:40;;;;;;;1.50;1.20;;;;;;;8.81;82.01;96987.69;4943228;28;20067;-71
2024/01/04 11:31:06;;;;;;;1.30;1.20;;;;;;;8.81;81.83;97011.84;4937407;29;20039;-71
2024/01/04 11:33:33;;;;;;;0.93;0.93;;;;;;;8.64;82.35;97003.16;4933047;29;20046;-71
2024/01/04 11:35:58;;;;;;;2.05;1.20;;;;;;;8.74;81.40;97003.22;4927285;29;20042;-71